Poio, Spain
Current Conditions -  °F | °C
As of 3:30 AM on Wednesday 22 Oct 2014 (Local Time) from LEVX Reporting Station
Clear Clear  
Wind Chill: 17°   Ceiling: Unl
Heat Index: 17°   Visibility: 6mi
Dew Point: 14°   Wind: 0mph
Humidity: 82%   Direction: NA
Pressure: 30.39"   Gusts: NA
Location:  42.44°N, 8.71°W
Report Text: LEVX 220130Z 00000KT CAVOK 17/14 Q1029 NOSIG
Loading
Personal Weather Stations






























Interactive Weather Map
Tropical Storm Tracking
New forecast layout! Learn more

10-Day Weather Forecast

Advertisements
Track Severe Weather on mobile